sensor_id;sensor_type;location;lat;lon;timestamp;pressure;altitude;pressure_sealevel;temperature;humidity
65758;BME280;52495;52.208;5.158;2022-12-05T00:02:07;101841.13;;;3.87;86.92
65758;BME280;52495;52.208;5.158;2022-12-05T00:04:34;101837.06;;;3.95;86.94
65758;BME280;52495;52.208;5.158;2022-12-05T00:07:00;101836.63;;;4.10;86.15
65758;BME280;52495;52.208;5.158;2022-12-05T00:09:27;101840.78;;;4.06;86.02
65758;BME280;52495;52.208;5.158;2022-12-05T00:11:55;101841.28;;;3.93;86.00
65758;BME280;52495;52.208;5.158;2022-12-05T00:14:22;101832.94;;;3.99;86.75
65758;BME280;52495;52.208;5.158;2022-12-05T00:16:49;101843.91;;;3.96;86.62
65758;BME280;52495;52.208;5.158;2022-12-05T00:19:15;101838.88;;;3.99;86.68
65758;BME280;52495;52.208;5.158;2022-12-05T00:21:42;101842.28;;;3.98;87.02
65758;BME280;52495;52.208;5.158;2022-12-05T00:24:11;101835.50;;;3.99;87.21
65758;BME280;52495;52.208;5.158;2022-12-05T00:26:38;101840.81;;;4.08;86.80
65758;BME280;52495;52.208;5.158;2022-12-05T00:29:06;101845.13;;;4.10;86.39
65758;BME280;52495;52.208;5.158;2022-12-05T00:31:33;101845.22;;;4.14;86.55
65758;BME280;52495;52.208;5.158;2022-12-05T00:34:01;101839.09;;;4.07;86.85
65758;BME280;52495;52.208;5.158;2022-12-05T00:36:30;101840.03;;;4.10;86.90
65758;BME280;52495;52.208;5.158;2022-12-05T00:38:58;101840.19;;;4.17;86.57
65758;BME280;52495;52.208;5.158;2022-12-05T00:41:27;101843.47;;;4.11;86.86
65758;BME280;52495;52.208;5.158;2022-12-05T00:43:54;101836.72;;;4.15;86.79
65758;BME280;52495;52.208;5.158;2022-12-05T00:46:26;101841.00;;;4.16;86.80
65758;BME280;52495;52.208;5.158;2022-12-05T00:48:54;101849.28;;;4.05;87.06
65758;BME280;52495;52.208;5.158;2022-12-05T00:51:23;101849.63;;;4.19;87.23
65758;BME280;52495;52.208;5.158;2022-12-05T00:53:51;101853.88;;;4.19;87.27
65758;BME280;52495;52.208;5.158;2022-12-05T00:56:19;101851.50;;;4.27;87.01
65758;BME280;52495;52.208;5.158;2022-12-05T00:58:47;101841.66;;;4.07;87.40
65758;BME280;52495;52.208;5.158;2022-12-05T01:01:16;101848.06;;;4.24;87.16
65758;BME280;52495;52.208;5.158;2022-12-05T01:03:45;101848.69;;;4.16;87.80
65758;BME280;52495;52.208;5.158;2022-12-05T01:06:13;101846.94;;;4.13;87.90
65758;BME280;52495;52.208;5.158;2022-12-05T01:08:43;101843.63;;;4.17;88.10
65758;BME280;52495;52.208;5.158;2022-12-05T01:11:11;101846.88;;;4.12;88.18
65758;BME280;52495;52.208;5.158;2022-12-05T01:13:39;101843.63;;;4.17;87.80
65758;BME280;52495;52.208;5.158;2022-12-05T01:16:12;101837.69;;;4.18;88.59
65758;BME280;52495;52.208;5.158;2022-12-05T01:18:39;101836.78;;;4.16;88.80
65758;BME280;52495;52.208;5.158;2022-12-05T01:21:08;101841.19;;;4.22;88.99
65758;BME280;52495;52.208;5.158;2022-12-05T01:23:35;101844.41;;;4.15;89.23
65758;BME280;52495;52.208;5.158;2022-12-05T01:26:05;101840.31;;;4.21;89.50
65758;BME280;52495;52.208;5.158;2022-12-05T01:28:32;101841.13;;;4.20;89.74
65758;BME280;52495;52.208;5.158;2022-12-05T01:31:04;101842.03;;;4.22;89.75
65758;BME280;52495;52.208;5.158;2022-12-05T01:33:31;101842.63;;;4.12;90.17
65758;BME280;52495;52.208;5.158;2022-12-05T01:35:58;101847.03;;;4.18;90.31
65758;BME280;52495;52.208;5.158;2022-12-05T01:38:27;101848.06;;;4.24;90.63
65758;BME280;52495;52.208;5.158;2022-12-05T01:41:01;101848.78;;;4.20;90.77
65758;BME280;52495;52.208;5.158;2022-12-05T01:43:28;101854.78;;;4.21;90.52
65758;BME280;52495;52.208;5.158;2022-12-05T01:45:55;101852.25;;;4.22;90.97
65758;BME280;52495;52.208;5.158;2022-12-05T01:48:24;101854.81;;;4.22;90.85
65758;BME280;52495;52.208;5.158;2022-12-05T01:50:53;101848.59;;;4.13;91.31
65758;BME280;52495;52.208;5.158;2022-12-05T01:53:21;101857.97;;;4.12;91.73
65758;BME280;52495;52.208;5.158;2022-12-05T01:55:50;101854.00;;;4.23;91.48
65758;BME280;52495;52.208;5.158;2022-12-05T01:58:17;101851.41;;;4.22;91.96
65758;BME280;52495;52.208;5.158;2022-12-05T02:00:45;101850.59;;;4.24;92.17
65758;BME280;52495;52.208;5.158;2022-12-05T02:03:16;101851.97;;;4.12;92.45
65758;BME280;52495;52.208;5.158;2022-12-05T02:05:45;101852.06;;;4.15;92.62
65758;BME280;52495;52.208;5.158;2022-12-05T02:08:13;101850.22;;;4.09;92.97
65758;BME280;52495;52.208;5.158;2022-12-05T02:10:43;101847.19;;;4.24;92.65
65758;BME280;52495;52.208;5.158;2022-12-05T02:13:22;101847.78;;;4.14;92.99
65758;BME280;52495;52.208;5.158;2022-12-05T02:15:59;101849.59;;;4.18;92.67
65758;BME280;52495;52.208;5.158;2022-12-05T02:18:38;101849.88;;;4.29;93.02
65758;BME280;52495;52.208;5.158;2022-12-05T02:21:46;101849.59;;;4.18;93.52
65758;BME280;52495;52.208;5.158;2022-12-05T02:27:35;101845.41;;;4.21;93.74
65758;BME280;52495;52.208;5.158;2022-12-05T02:30:08;101840.56;;;4.31;93.59
65758;BME280;52495;52.208;5.158;2022-12-05T02:32:45;101838.53;;;4.19;94.25
65758;BME280;52495;52.208;5.158;2022-12-05T02:35:20;101840.28;;;4.20;94.19
65758;BME280;52495;52.208;5.158;2022-12-05T02:37:54;101845.31;;;4.17;94.69
65758;BME280;52495;52.208;5.158;2022-12-05T02:40:29;101845.00;;;4.04;94.85
65758;BME280;52495;52.208;5.158;2022-12-05T02:43:00;101845.41;;;4.21;94.52
65758;BME280;52495;52.208;5.158;2022-12-05T02:45:31;101846.94;;;4.15;94.69
65758;BME280;52495;52.208;5.158;2022-12-05T02:48:01;101846.22;;;4.19;94.81
65758;BME280;52495;52.208;5.158;2022-12-05T02:50:32;101840.38;;;4.24;94.75
65758;BME280;52495;52.208;5.158;2022-12-05T02:53:02;101837.63;;;4.15;94.57
65758;BME280;52495;52.208;5.158;2022-12-05T02:55:30;101842.75;;;4.17;95.06
65758;BME280;52495;52.208;5.158;2022-12-05T02:58:02;101848.84;;;4.22;95.01
65758;BME280;52495;52.208;5.158;2022-12-05T03:00:33;101841.28;;;4.25;94.54
65758;BME280;52495;52.208;5.158;2022-12-05T03:03:00;101847.13;;;4.21;94.85
65758;BME280;52495;52.208;5.158;2022-12-05T03:05:31;101844.66;;;4.24;95.13
65758;BME280;52495;52.208;5.158;2022-12-05T03:08:04;101841.19;;;4.22;95.16
65758;BME280;52495;52.208;5.158;2022-12-05T03:10:35;101848.06;;;4.24;94.87
65758;BME280;52495;52.208;5.158;2022-12-05T03:13:06;101848.31;;;4.35;94.54
65758;BME280;52495;52.208;5.158;2022-12-05T03:15:40;101849.16;;;4.34;94.34
65758;BME280;52495;52.208;5.158;2022-12-05T03:18:12;101845.38;;;4.20;94.46
65758;BME280;52495;52.208;5.158;2022-12-05T03:20:44;101849.97;;;4.33;93.82
65758;BME280;52495;52.208;5.158;2022-12-05T03:23:15;101849.88;;;4.30;94.28
65758;BME280;52495;52.208;5.158;2022-12-05T03:25:53;101849.13;;;4.33;94.18
65758;BME280;52495;52.208;5.158;2022-12-05T03:28:23;101850.06;;;4.36;94.17
65758;BME280;52495;52.208;5.158;2022-12-05T03:30:56;101850.91;;;4.37;94.01
65758;BME280;52495;52.208;5.158;2022-12-05T03:33:28;101860.91;;;4.28;94.42
65758;BME280;52495;52.208;5.158;2022-12-05T03:36:01;101857.56;;;4.30;94.62
65758;BME280;52495;52.208;5.158;2022-12-05T03:38:32;101856.03;;;4.37;94.19
65758;BME280;52495;52.208;5.158;2022-12-05T03:41:06;101854.91;;;4.27;94.75
65758;BME280;52495;52.208;5.158;2022-12-05T03:43:39;101858.72;;;4.42;94.07
65758;BME280;52495;52.208;5.158;2022-12-05T03:46:15;101861.28;;;4.42;93.66
65758;BME280;52495;52.208;5.158;2022-12-05T03:48:53;101854.38;;;4.39;94.17
65758;BME280;52495;52.208;5.158;2022-12-05T03:51:27;101862.09;;;4.40;93.94
65758;BME280;52495;52.208;5.158;2022-12-05T03:53:59;101867.34;;;4.47;93.94
65758;BME280;52495;52.208;5.158;2022-12-05T03:56:34;101864.13;;;4.54;93.34
65758;BME280;52495;52.208;5.158;2022-12-05T03:59:08;101864.75;;;4.45;93.47
65758;BME280;52495;52.208;5.158;2022-12-05T04:01:41;101865.22;;;4.65;92.02
65758;BME280;52495;52.208;5.158;2022-12-05T04:04:12;101869.06;;;4.46;92.63
65758;BME280;52495;52.208;5.158;2022-12-05T04:06:40;101877.66;;;4.50;93.22
65758;BME280;52495;52.208;5.158;2022-12-05T04:09:15;101870.03;;;4.51;93.36
65758;BME280;52495;52.208;5.158;2022-12-05T04:11:46;101870.16;;;4.58;93.76
65758;BME280;52495;52.208;5.158;2022-12-05T04:14:17;101868.50;;;4.58;93.21
65758;BME280;52495;52.208;5.158;2022-12-05T04:16:52;101871.91;;;4.59;92.83
65758;BME280;52495;52.208;5.158;2022-12-05T04:19:33;101879.13;;;4.75;92.12
65758;BME280;52495;52.208;5.158;2022-12-05T04:22:22;101881.50;;;4.67;92.70
65758;BME280;52495;52.208;5.158;2022-12-05T04:24:51;101874.19;;;4.83;91.99
65758;BME280;52495;52.208;5.158;2022-12-05T04:27:40;101878.09;;;4.68;92.45
65758;BME280;52495;52.208;5.158;2022-12-05T04:30:11;101872.97;;;4.67;93.05
65758;BME280;52495;52.208;5.158;2022-12-05T04:32:44;101873.22;;;4.78;92.52
65758;BME280;52495;52.208;5.158;2022-12-05T04:35:13;101863.75;;;4.75;92.21
65758;BME280;52495;52.208;5.158;2022-12-05T04:37:48;101863.03;;;4.81;92.38
65758;BME280;52495;52.208;5.158;2022-12-05T04:40:19;101863.00;;;4.78;92.90
65758;BME280;52495;52.208;5.158;2022-12-05T04:42:49;101869.63;;;4.71;93.02
65758;BME280;52495;52.208;5.158;2022-12-05T04:45:18;101866.25;;;4.72;93.05
65758;BME280;52495;52.208;5.158;2022-12-05T04:47:51;101868.78;;;4.70;93.19
65758;BME280;52495;52.208;5.158;2022-12-05T04:50:20;101868.06;;;4.76;93.96
65758;BME280;52495;52.208;5.158;2022-12-05T04:52:51;101866.31;;;4.75;93.13
65758;BME280;52495;52.208;5.158;2022-12-05T04:55:21;101870.59;;;4.75;93.37
65758;BME280;52495;52.208;5.158;2022-12-05T04:57:56;101878.38;;;4.81;93.51
65758;BME280;52495;52.208;5.158;2022-12-05T05:00:28;101872.63;;;4.90;93.23
65758;BME280;52495;52.208;5.158;2022-12-05T05:02:59;101869.97;;;4.85;93.42
65758;BME280;52495;52.208;5.158;2022-12-05T05:05:30;101864.22;;;4.95;92.97
65758;BME280;52495;52.208;5.158;2022-12-05T05:07:58;101863.34;;;4.93;92.98
65758;BME280;52495;52.208;5.158;2022-12-05T05:10:32;101871.03;;;4.95;92.91
65758;BME280;52495;52.208;5.158;2022-12-05T05:13:00;101867.81;;;5.04;92.78
65758;BME280;52495;52.208;5.158;2022-12-05T05:15:27;101866.97;;;5.03;92.72
65758;BME280;52495;52.208;5.158;2022-12-05T05:17:55;101872.78;;;4.97;92.98
65758;BME280;52495;52.208;5.158;2022-12-05T05:20:22;101874.50;;;4.97;93.14
65758;BME280;52495;52.208;5.158;2022-12-05T05:22:49;101876.25;;;4.99;93.29
65758;BME280;52495;52.208;5.158;2022-12-05T05:25:16;101870.41;;;5.05;93.06
65758;BME280;52495;52.208;5.158;2022-12-05T05:27:47;101869.63;;;5.08;93.04
65758;BME280;52495;52.208;5.158;2022-12-05T05:30:14;101874.69;;;5.06;93.52
65758;BME280;52495;52.208;5.158;2022-12-05T05:32:41;101877.25;;;5.06;93.16
65758;BME280;52495;52.208;5.158;2022-12-05T05:35:10;101869.56;;;5.06;93.50
65758;BME280;52495;52.208;5.158;2022-12-05T05:37:37;101873.00;;;5.07;93.72
65758;BME280;52495;52.208;5.158;2022-12-05T05:40:09;101878.16;;;5.08;94.01
65758;BME280;52495;52.208;5.158;2022-12-05T05:42:41;101880.63;;;5.04;93.98
65758;BME280;52495;52.208;5.158;2022-12-05T05:45:09;101877.38;;;5.11;93.26
65758;BME280;52495;52.208;5.158;2022-12-05T05:47:36;101879.13;;;5.12;93.35
65758;BME280;52495;52.208;5.158;2022-12-05T05:50:04;101876.34;;;5.04;93.56
65758;BME280;52495;52.208;5.158;2022-12-05T05:52:33;101876.44;;;5.07;93.91
65758;BME280;52495;52.208;5.158;2022-12-05T05:55:01;101880.78;;;5.10;93.94
65758;BME280;52495;52.208;5.158;2022-12-05T05:57:29;101880.94;;;5.18;93.37
65758;BME280;52495;52.208;5.158;2022-12-05T05:59:55;101881.63;;;5.10;93.41
65758;BME280;52495;52.208;5.158;2022-12-05T06:02:22;101874.81;;;5.11;94.32
65758;BME280;52495;52.208;5.158;2022-12-05T06:04:54;101881.00;;;5.21;93.94
65758;BME280;52495;52.208;5.158;2022-12-05T06:07:21;101876.84;;;5.26;93.62
65758;BME280;52495;52.208;5.158;2022-12-05T06:09:49;101879.22;;;5.16;94.38
65758;BME280;52495;52.208;5.158;2022-12-05T06:12:15;101875.09;;;5.23;93.67
65758;BME280;52495;52.208;5.158;2022-12-05T06:14:42;101878.44;;;5.21;93.53
65758;BME280;52495;52.208;5.158;2022-12-05T06:17:09;101885.41;;;5.28;93.36
65758;BME280;52495;52.208;5.158;2022-12-05T06:19:35;101879.22;;;5.18;94.09
65758;BME280;52495;52.208;5.158;2022-12-05T06:22:02;101880.34;;;5.29;93.73
65758;BME280;52495;52.208;5.158;2022-12-05T06:24:29;101876.94;;;5.30;93.91
65758;BME280;52495;52.208;5.158;2022-12-05T06:26:57;101883.69;;;5.27;94.04
65758;BME280;52495;52.208;5.158;2022-12-05T06:29:24;101886.00;;;5.16;93.70
65758;BME280;52495;52.208;5.158;2022-12-05T06:31:50;101887.13;;;5.27;93.74
65758;BME280;52495;52.208;5.158;2022-12-05T06:34:17;101881.28;;;5.33;93.74
65758;BME280;52495;52.208;5.158;2022-12-05T06:36:44;101891.59;;;5.38;93.44
65758;BME280;52495;52.208;5.158;2022-12-05T06:39:11;101876.84;;;5.26;93.84
65758;BME280;52495;52.208;5.158;2022-12-05T06:41:37;101887.06;;;5.26;94.49
65758;BME280;52495;52.208;5.158;2022-12-05T06:44:06;101886.47;;;5.36;94.34
65758;BME280;52495;52.208;5.158;2022-12-05T06:46:32;101889.06;;;5.39;94.16
65758;BME280;52495;52.208;5.158;2022-12-05T06:48:59;101895.91;;;5.40;93.64
65758;BME280;52495;52.208;5.158;2022-12-05T06:51:26;101887.41;;;5.41;93.55
65758;BME280;52495;52.208;5.158;2022-12-05T06:53:54;101897.63;;;5.40;94.28
65758;BME280;52495;52.208;5.158;2022-12-05T06:56:21;101890.88;;;5.43;93.85
65758;BME280;52495;52.208;5.158;2022-12-05T06:58:48;101889.19;;;5.44;93.98
65758;BME280;52495;52.208;5.158;2022-12-05T07:01:19;101897.63;;;5.40;93.88
65758;BME280;52495;52.208;5.158;2022-12-05T07:04:09;101900.13;;;5.38;94.52
65758;BME280;52495;52.208;5.158;2022-12-05T07:06:39;101889.94;;;5.40;94.37
65758;BME280;52495;52.208;5.158;2022-12-05T07:09:06;101902.00;;;5.44;94.05
65758;BME280;52495;52.208;5.158;2022-12-05T07:11:33;101907.66;;;5.30;95.06
65758;BME280;52495;52.208;5.158;2022-12-05T07:14:00;101913.00;;;5.41;94.61
65758;BME280;52495;52.208;5.158;2022-12-05T07:16:29;101912.06;;;5.36;94.77
65758;BME280;52495;52.208;5.158;2022-12-05T07:18:55;101901.84;;;5.38;94.82
65758;BME280;52495;52.208;5.158;2022-12-05T07:21:24;101904.56;;;5.45;94.96
65758;BME280;52495;52.208;5.158;2022-12-05T07:23:51;101911.44;;;5.48;94.43
65758;BME280;52495;52.208;5.158;2022-12-05T07:26:20;101909.72;;;5.47;94.28
65758;BME280;52495;52.208;5.158;2022-12-05T07:28:47;101913.19;;;5.49;93.82
65758;BME280;52495;52.208;5.158;2022-12-05T07:31:16;101911.41;;;5.45;94.34
65758;BME280;52495;52.208;5.158;2022-12-05T07:33:44;101909.63;;;5.42;94.71
65758;BME280;52495;52.208;5.158;2022-12-05T07:36:13;101915.72;;;5.47;94.51
65758;BME280;52495;52.208;5.158;2022-12-05T07:38:41;101914.16;;;5.56;94.38
65758;BME280;52495;52.208;5.158;2022-12-05T07:41:10;101923.50;;;5.52;94.14
65758;BME280;52495;52.208;5.158;2022-12-05T07:43:40;101920.97;;;5.54;93.76
65758;BME280;52495;52.208;5.158;2022-12-05T07:46:08;101929.50;;;5.53;94.49
65758;BME280;52495;52.208;5.158;2022-12-05T07:48:35;101920.84;;;5.49;93.98
65758;BME280;52495;52.208;5.158;2022-12-05T07:51:05;101932.75;;;5.47;94.25
65758;BME280;52495;52.208;5.158;2022-12-05T07:53:32;101936.22;;;5.49;95.07
65758;BME280;52495;52.208;5.158;2022-12-05T07:56:01;101934.63;;;5.54;94.25
65758;BME280;52495;52.208;5.158;2022-12-05T07:58:29;101933.91;;;5.60;93.74
65758;BME280;52495;52.208;5.158;2022-12-05T08:00:56;101933.06;;;5.59;93.87
65758;BME280;52495;52.208;5.158;2022-12-05T08:03:23;101941.50;;;5.57;93.93
65758;BME280;52495;52.208;5.158;2022-12-05T08:05:50;101938.09;;;5.56;94.20
65758;BME280;52495;52.208;5.158;2022-12-05T08:08:18;101940.72;;;5.59;94.66
65758;BME280;52495;52.208;5.158;2022-12-05T08:10:45;101931.34;;;5.60;94.08
65758;BME280;52495;52.208;5.158;2022-12-05T08:13:11;101932.41;;;5.70;93.29
65758;BME280;52495;52.208;5.158;2022-12-05T08:15:38;101933.13;;;5.64;93.78
65758;BME280;52495;52.208;5.158;2022-12-05T08:18:05;101937.44;;;5.65;93.66
65758;BME280;52495;52.208;5.158;2022-12-05T08:20:31;101941.75;;;5.68;94.25
65758;BME280;52495;52.208;5.158;2022-12-05T08:22:58;101942.56;;;5.65;94.75
65758;BME280;52495;52.208;5.158;2022-12-05T08:25:26;101939.38;;;5.77;93.68
65758;BME280;52495;52.208;5.158;2022-12-05T08:27:53;101941.78;;;5.69;94.17
65758;BME280;52495;52.208;5.158;2022-12-05T08:30:19;101953.97;;;5.81;93.30
65758;BME280;52495;52.208;5.158;2022-12-05T08:32:46;101949.72;;;5.80;93.27
65758;BME280;52495;52.208;5.158;2022-12-05T08:35:13;101949.66;;;5.78;92.84
65758;BME280;52495;52.208;5.158;2022-12-05T08:37:40;101953.13;;;5.82;93.61
65758;BME280;52495;52.208;5.158;2022-12-05T08:40:08;101955.91;;;5.91;92.68
65758;BME280;52495;52.208;5.158;2022-12-05T08:42:36;101954.84;;;5.80;93.67
65758;BME280;52495;52.208;5.158;2022-12-05T08:45:03;101953.09;;;5.79;92.97
65758;BME280;52495;52.208;5.158;2022-12-05T08:47:30;101965.19;;;5.86;93.53
65758;BME280;52495;52.208;5.158;2022-12-05T08:49:56;101952.44;;;5.88;93.26
65758;BME280;52495;52.208;5.158;2022-12-05T08:52:25;101953.19;;;5.84;92.64
65758;BME280;52495;52.208;5.158;2022-12-05T08:54:51;101951.38;;;5.78;93.66
65758;BME280;52495;52.208;5.158;2022-12-05T08:57:18;101965.19;;;5.85;93.49
65758;BME280;52495;52.208;5.158;2022-12-05T08:59:46;101969.50;;;5.87;93.80
65758;BME280;52495;52.208;5.158;2022-12-05T09:02:13;101971.34;;;5.95;92.62
65758;BME280;52495;52.208;5.158;2022-12-05T09:04:40;101970.38;;;5.89;92.17
65758;BME280;52495;52.208;5.158;2022-12-05T09:07:06;101968.53;;;5.82;93.16
65758;BME280;52495;52.208;5.158;2022-12-05T09:09:33;101966.84;;;5.84;94.17
65758;BME280;52495;52.208;5.158;2022-12-05T09:12:00;101971.06;;;5.82;93.94
65758;BME280;52495;52.208;5.158;2022-12-05T09:14:27;101972.19;;;5.93;92.85
65758;BME280;52495;52.208;5.158;2022-12-05T09:16:59;101972.97;;;5.91;92.81
65758;BME280;52495;52.208;5.158;2022-12-05T09:19:26;101969.63;;;5.93;93.50
65758;BME280;52495;52.208;5.158;2022-12-05T09:21:54;101977.25;;;5.92;94.05
65758;BME280;52495;52.208;5.158;2022-12-05T09:24:21;101972.31;;;6.00;93.48
65758;BME280;52495;52.208;5.158;2022-12-05T09:26:48;101979.25;;;6.04;92.25
65758;BME280;52495;52.208;5.158;2022-12-05T09:29:15;101984.25;;;5.99;91.80
65758;BME280;52495;52.208;5.158;2022-12-05T09:31:42;101985.03;;;5.95;92.57
65758;BME280;52495;52.208;5.158;2022-12-05T09:34:10;101991.88;;;5.96;92.16
65758;BME280;52495;52.208;5.158;2022-12-05T09:36:38;101996.91;;;5.91;92.65
65758;BME280;52495;52.208;5.158;2022-12-05T09:39:05;101992.00;;;6.01;93.04
65758;BME280;52495;52.208;5.158;2022-12-05T09:45:11;101998.00;;;6.01;92.90
65758;BME280;52495;52.208;5.158;2022-12-05T09:47:47;101993.09;;;6.12;92.22
65758;BME280;52495;52.208;5.158;2022-12-05T09:50:19;101992.16;;;6.08;92.72
65758;BME280;52495;52.208;5.158;2022-12-05T09:53:03;101997.28;;;6.08;92.21
65758;BME280;52495;52.208;5.158;2022-12-05T09:55:45;101995.56;;;6.07;92.01
65758;BME280;52495;52.208;5.158;2022-12-05T09:58:21;102003.22;;;6.06;92.05
65758;BME280;52495;52.208;5.158;2022-12-05T10:00:53;102001.00;;;6.23;91.67
65758;BME280;52495;52.208;5.158;2022-12-05T10:03:28;101996.72;;;6.23;91.16
65758;BME280;52495;52.208;5.158;2022-12-05T10:06:08;101999.13;;;6.14;91.23
65758;BME280;52495;52.208;5.158;2022-12-05T10:08:46;102004.97;;;6.08;92.68
65758;BME280;52495;52.208;5.158;2022-12-05T10:11:26;101997.19;;;6.04;92.07
65758;BME280;52495;52.208;5.158;2022-12-05T10:14:01;102005.03;;;6.12;92.93
65758;BME280;52495;52.208;5.158;2022-12-05T10:16:34;101991.25;;;6.06;92.93
65758;BME280;52495;52.208;5.158;2022-12-05T10:19:09;101995.59;;;6.09;92.14
65758;BME280;52495;52.208;5.158;2022-12-05T10:21:45;102001.66;;;6.13;92.29
65758;BME280;52495;52.208;5.158;2022-12-05T10:24:17;101994.63;;;6.02;92.89
65758;BME280;52495;52.208;5.158;2022-12-05T10:26:49;102001.78;;;6.19;92.65
65758;BME280;52495;52.208;5.158;2022-12-05T10:29:24;101999.38;;;6.27;91.13
65758;BME280;52495;52.208;5.158;2022-12-05T10:31:58;101995.88;;;6.23;91.26
65758;BME280;52495;52.208;5.158;2022-12-05T10:34:30;101998.41;;;6.21;92.30
65758;BME280;52495;52.208;5.158;2022-12-05T10:37:08;101983.06;;;6.23;91.75
65758;BME280;52495;52.208;5.158;2022-12-05T10:39:36;101991.53;;;6.19;92.64
65758;BME280;52495;52.208;5.158;2022-12-05T10:42:04;101990.69;;;6.20;92.58
65758;BME280;52495;52.208;5.158;2022-12-05T10:44:33;101995.00;;;6.22;92.42
65758;BME280;52495;52.208;5.158;2022-12-05T10:47:00;101992.34;;;6.18;91.89
65758;BME280;52495;52.208;5.158;2022-12-05T10:49:27;101985.81;;;6.34;91.20
65758;BME280;52495;52.208;5.158;2022-12-05T10:51:54;101978.94;;;6.31;91.48
65758;BME280;52495;52.208;5.158;2022-12-05T10:54:25;101975.44;;;6.28;92.38
65758;BME280;52495;52.208;5.158;2022-12-05T10:56:55;101980.53;;;6.26;92.20
65758;BME280;52495;52.208;5.158;2022-12-05T10:59:24;101980.59;;;6.29;91.73
65758;BME280;52495;52.208;5.158;2022-12-05T11:01:52;101986.34;;;6.17;92.67
65758;BME280;52495;52.208;5.158;2022-12-05T11:04:23;101985.63;;;6.25;92.08
65758;BME280;52495;52.208;5.158;2022-12-05T11:06:53;101983.06;;;6.25;92.87
65758;BME280;52495;52.208;5.158;2022-12-05T11:09:24;101986.56;;;6.28;92.32
65758;BME280;52495;52.208;5.158;2022-12-05T11:12:16;101976.38;;;6.33;92.53
65758;BME280;52495;52.208;5.158;2022-12-05T11:14:56;101984.13;;;6.36;92.03
65758;BME280;52495;52.208;5.158;2022-12-05T11:17:28;101985.00;;;6.36;91.61
65758;BME280;52495;52.208;5.158;2022-12-05T11:19:55;101976.28;;;6.28;92.55
65758;BME280;52495;52.208;5.158;2022-12-05T11:22:30;101978.03;;;6.29;92.49
65758;BME280;52495;52.208;5.158;2022-12-05T11:24:58;101976.34;;;6.31;92.92
65758;BME280;52495;52.208;5.158;2022-12-05T11:27:28;101978.09;;;6.34;93.10
65758;BME280;52495;52.208;5.158;2022-12-05T11:30:08;101966.16;;;6.34;93.20
65758;BME280;52495;52.208;5.158;2022-12-05T11:32:40;101971.38;;;6.41;92.50
65758;BME280;52495;52.208;5.158;2022-12-05T11:35:15;101973.09;;;6.40;91.83
65758;BME280;52495;52.208;5.158;2022-12-05T11:37:47;101973.03;;;6.37;91.96
65758;BME280;52495;52.208;5.158;2022-12-05T11:40:25;101976.63;;;6.45;91.40
65758;BME280;52495;52.208;5.158;2022-12-05T11:43:17;101979.88;;;6.36;92.15
65758;BME280;52495;52.208;5.158;2022-12-05T11:45:59;101979.94;;;6.40;91.40
65758;BME280;52495;52.208;5.158;2022-12-05T11:48:50;101986.81;;;6.42;92.04
65758;BME280;52495;52.208;5.158;2022-12-05T11:51:30;101980.78;;;6.38;91.79
65758;BME280;52495;52.208;5.158;2022-12-05T11:54:26;101983.38;;;6.42;92.15
65758;BME280;52495;52.208;5.158;2022-12-05T11:57:05;101982.69;;;6.50;91.23
65758;BME280;52495;52.208;5.158;2022-12-05T11:59:55;101974.13;;;6.50;91.61
65758;BME280;52495;52.208;5.158;2022-12-05T12:02:32;101981.56;;;6.36;91.36
65758;BME280;52495;52.208;5.158;2022-12-05T12:05:12;101982.53;;;6.43;91.67
65758;BME280;52495;52.208;5.158;2022-12-05T12:07:58;101978.34;;;6.46;92.26
65758;BME280;52495;52.208;5.158;2022-12-05T12:10:36;101982.59;;;6.44;91.77
65758;BME280;52495;52.208;5.158;2022-12-05T12:13:21;101980.03;;;6.44;91.40
65758;BME280;52495;52.208;5.158;2022-12-05T12:15:59;101979.06;;;6.39;91.92
65758;BME280;52495;52.208;5.158;2022-12-05T12:18:45;101983.22;;;6.32;91.96
65758;BME280;52495;52.208;5.158;2022-12-05T12:21:17;101974.06;;;6.47;91.88
65758;BME280;52495;52.208;5.158;2022-12-05T12:23:57;101970.47;;;6.37;92.24
65758;BME280;52495;52.208;5.158;2022-12-05T12:26:38;101969.72;;;6.43;90.52
65758;BME280;52495;52.208;5.158;2022-12-05T12:29:16;101965.47;;;6.45;91.87
65758;BME280;52495;52.208;5.158;2022-12-05T12:31:54;101963.81;;;6.45;91.22
65758;BME280;52495;52.208;5.158;2022-12-05T12:34:58;101960.22;;;6.37;91.23
65758;BME280;52495;52.208;5.158;2022-12-05T12:37:36;101965.53;;;6.46;92.34
65758;BME280;52495;52.208;5.158;2022-12-05T12:40:12;101958.81;;;6.55;91.85
65758;BME280;52495;52.208;5.158;2022-12-05T12:42:50;101958.03;;;6.59;91.39
65758;BME280;52495;52.208;5.158;2022-12-05T12:45:42;101955.41;;;6.54;91.75
65758;BME280;52495;52.208;5.158;2022-12-05T12:48:30;101958.72;;;6.48;91.81
65758;BME280;52495;52.208;5.158;2022-12-05T12:51:01;101957.00;;;6.47;92.33
65758;BME280;52495;52.208;5.158;2022-12-05T12:56:30;101942.31;;;6.38;93.70
65758;BME280;52495;52.208;5.158;2022-12-05T12:59:15;101948.47;;;6.48;93.20
65758;BME280;52495;52.208;5.158;2022-12-05T13:01:53;101944.97;;;6.45;93.75
65758;BME280;52495;52.208;5.158;2022-12-05T13:04:34;101935.38;;;6.34;93.78
65758;BME280;52495;52.208;5.158;2022-12-05T13:07:10;101948.31;;;6.41;94.51
65758;BME280;52495;52.208;5.158;2022-12-05T13:09:44;101948.28;;;6.39;94.53
65758;BME280;52495;52.208;5.158;2022-12-05T13:12:26;101934.59;;;6.38;94.97
65758;BME280;52495;52.208;5.158;2022-12-05T13:14:58;101942.41;;;6.45;94.39
65758;BME280;52495;52.208;5.158;2022-12-05T13:17:29;101944.13;;;6.46;94.62
65758;BME280;52495;52.208;5.158;2022-12-05T13:20:12;101944.88;;;6.38;94.47
65758;BME280;52495;52.208;5.158;2022-12-05T13:22:41;101946.69;;;6.44;94.53
65758;BME280;52495;52.208;5.158;2022-12-05T13:25:12;101950.72;;;6.31;95.16
65758;BME280;52495;52.208;5.158;2022-12-05T13:27:39;101952.44;;;6.32;95.75
65758;BME280;52495;52.208;5.158;2022-12-05T13:30:16;101955.16;;;6.42;95.29
65758;BME280;52495;52.208;5.158;2022-12-05T13:32:45;101947.44;;;6.38;95.35